Time;durP1;ratioP1;P1;durP2;ratioP2;P2;SDS_P1;SDS_P2;PMS_P1;PMS_P2;Temp;Humidity;BMP_temperature;BMP_pressure;BME280_temperature;BME280_humidity;BME280_pressure;Samples;Min_cycle;Max_cycle;Signal;HPM_P1;HPM_P2
2023/10/16 00:01:10;;;;;;;;;;;5.10;99.90;;;;;;6754208;88;20079;-81
2023/10/16 00:11:12;;;;;;;;;;;5.10;99.90;;;;;;6746466;88;20493;-81
2023/10/16 00:21:13;;;;;;;;;;;5.00;99.90;;;;;;6746452;88;20566;-81
2023/10/16 00:31:22;;;;;;;;;;;4.60;99.90;;;;;;6742510;88;20113;-81
2023/10/16 00:41:28;;;;;;;;;;;4.50;99.90;;;;;;6753225;88;20062;-81
2023/10/16 00:51:28;;;;;;;;;;;4.40;99.90;;;;;;6747821;88;20047;-81
2023/10/16 01:01:31;;;;;;;;;;;4.40;99.90;;;;;;6748098;88;20169;-81
2023/10/16 01:11:31;;;;;;;;;;;4.40;99.90;;;;;;6748629;88;20177;-81
2023/10/16 01:21:32;;;;;;;;;;;4.30;99.90;;;;;;6743822;88;20176;-81
2023/10/16 01:31:33;;;;;;;;;;;4.10;99.90;;;;;;6736402;88;20038;-81
2023/10/16 01:41:34;;;;;;;;;;;4.10;99.90;;;;;;6747253;88;20100;-81
2023/10/16 01:51:35;;;;;;;;;;;4.00;99.90;;;;;;6743690;88;20064;-81
2023/10/16 02:01:36;;;;;;;;;;;3.90;99.90;;;;;;6745861;88;20803;-80
2023/10/16 02:11:36;;;;;;;;;;;3.80;99.90;;;;;;6747660;88;20120;-81
2023/10/16 02:21:40;;;;;;;;;;;3.90;99.90;;;;;;6744579;88;20533;-82
2023/10/16 02:31:41;;;;;;;;;;;3.80;99.90;;;;;;6744836;88;20107;-81
2023/10/16 02:41:41;;;;;;;;;;;3.70;99.90;;;;;;6744015;88;20090;-80
2023/10/16 02:51:42;;;;;;;;;;;3.60;99.90;;;;;;6749141;88;20108;-81
2023/10/16 03:01:44;;;;;;;;;;;3.60;99.90;;;;;;6746518;88;22003;-80
2023/10/16 03:11:47;;;;;;;;;;;3.50;99.90;;;;;;6741893;88;20078;-81
2023/10/16 03:21:50;;;;;;;;;;;3.40;99.90;;;;;;6747941;88;20070;-80
2023/10/16 03:31:51;;;;;;;;;;;3.60;99.90;;;;;;6758956;88;20063;-81
2023/10/16 03:41:51;;;;;;;;;;;3.40;99.90;;;;;;6747622;88;20059;-80
2023/10/16 03:51:52;;;;;;;;;;;3.30;99.90;;;;;;6746323;88;20080;-80
2023/10/16 04:01:52;;;;;;;;;;;3.20;99.90;;;;;;6746573;88;20079;-81
2023/10/16 04:11:54;;;;;;;;;;;3.10;99.90;;;;;;6762375;88;20073;-80
2023/10/16 04:21:57;;;;;;;;;;;2.80;99.90;;;;;;6768462;88;20050;-80
2023/10/16 04:31:58;;;;;;;;;;;3.00;99.90;;;;;;6769315;88;20047;-79
2023/10/16 04:53:06;;;;;;;;;;;2.90;99.90;;;;;;6770252;88;20081;-79
2023/10/16 05:02:51;;;;;;;;;;;2.80;99.90;;;;;;6770170;88;20057;-77
2023/10/16 06:14:47;;;;;;;;;;;2.80;99.90;;;;;;6760763;88;20054;-79
2023/10/16 06:24:47;;;;;;;;;;;2.70;99.90;;;;;;6769000;88;20370;-79
2023/10/16 06:34:57;;;;;;;;;;;2.80;99.90;;;;;;6757270;88;20062;-78
2023/10/16 06:45:06;;;;;;;;;;;3.00;99.90;;;;;;6752914;88;20055;-77
2023/10/16 06:55:07;;;;;;;;;;;3.00;99.90;;;;;;6757394;88;20178;-79
2023/10/16 07:05:07;;;;;;;;;;;3.00;99.90;;;;;;6758330;88;20069;-80
2023/10/16 07:15:08;;;;;;;;;;;3.20;99.90;;;;;;6761278;88;20046;-80
2023/10/16 07:25:22;;;;;;;;;;;3.40;99.90;;;;;;6759067;88;20030;-81
2023/10/16 07:35:23;;;;;;;;;;;3.60;99.90;;;;;;6763020;88;20103;-79
2023/10/16 07:45:23;;;;;;;;;;;3.90;99.90;;;;;;6760579;88;20334;-80
2023/10/16 07:55:38;;;;;;;;;;;4.20;99.90;;;;;;6768819;88;20124;-79
2023/10/16 08:05:47;;;;;;;;;;;4.30;99.90;;;;;;6766150;88;20130;-79
2023/10/16 08:15:51;;;;;;;;;;;4.10;99.90;;;;;;6763526;88;20054;-80
2023/10/16 08:25:51;;;;;;;;;;;4.30;99.90;;;;;;6761622;88;20046;-80
2023/10/16 08:35:52;;;;;;;;;;;5.10;99.90;;;;;;6757125;88;20046;-78
2023/10/16 08:45:55;;;;;;;;;;;5.60;99.90;;;;;;6766224;88;20065;-80
2023/10/16 08:56:08;;;;;;;;;;;6.30;99.90;;;;;;6766348;88;20027;-80
2023/10/16 09:06:13;;;;;;;;;;;7.10;99.90;;;;;;6766975;88;20059;-81
2023/10/16 09:16:15;;;;;;;;;;;7.00;99.90;;;;;;6766013;88;20044;-79
2023/10/16 09:26:16;;;;;;;;;;;6.90;99.90;;;;;;6766083;88;20060;-81
2023/10/16 09:36:18;;;;;;;;;;;7.30;99.90;;;;;;6766226;88;20038;-81
2023/10/16 09:46:52;;;;;;;;;;;7.40;99.90;;;;;;6766484;88;20055;-82
2023/10/16 09:56:58;;;;;;;;;;;7.30;99.90;;;;;;6763611;88;20066;-80
2023/10/16 10:07:00;;;;;;;;;;;7.90;99.90;;;;;;6766022;88;20737;-80
2023/10/16 10:17:03;;;;;;;;;;;8.70;99.90;;;;;;6748931;88;20086;-80
2023/10/16 10:27:04;;;;;;;;;;;10.20;99.90;;;;;;6745128;88;20069;-80
2023/10/16 10:37:24;;;;;;;;;;;9.70;99.90;;;;;;6744489;88;20169;-80
2023/10/16 10:47:30;;;;;;;;;;;10.80;99.90;;;;;;6743095;88;20192;-78
2023/10/16 10:57:34;;;;;;;;;;;11.30;99.90;;;;;;6742013;88;20054;-80
2023/10/16 11:07:45;;;;;;;;;;;12.10;99.90;;;;;;6738642;88;20054;-79
2023/10/16 11:17:46;;;;;;;;;;;13.40;99.90;;;;;;6750927;88;20559;-80
2023/10/16 11:27:53;;;;;;;;;;;13.30;99.90;;;;;;6749289;88;20080;-79
2023/10/16 11:37:59;;;;;;;;;;;14.90;99.90;;;;;;6746885;88;20140;-79
2023/10/16 11:58:24;;;;;;;;;;;16.00;99.90;;;;;;6745875;88;20198;-79
2023/10/16 12:08:24;;;;;;;;;;;15.00;99.90;;;;;;6742193;88;20294;-78
2023/10/16 12:18:31;;;;;;;;;;;16.50;99.90;;;;;;6739997;88;20079;-79
2023/10/16 12:28:32;;;;;;;;;;;15.70;99.90;;;;;;6726854;88;20089;-79
2023/10/16 12:38:33;;;;;;;;;;;17.10;99.90;;;;;;6717652;88;20185;-78
2023/10/16 12:48:34;;;;;;;;;;;17.20;99.90;;;;;;6734319;88;20084;-78
2023/10/16 12:58:34;;;;;;;;;;;15.80;99.90;;;;;;6719082;88;20060;-77
2023/10/16 13:08:35;;;;;;;;;;;15.70;99.90;;;;;;6718391;88;20067;-78
2023/10/16 13:18:36;;;;;;;;;;;15.60;99.90;;;;;;6722375;88;20135;-78
2023/10/16 13:28:38;;;;;;;;;;;15.90;99.90;;;;;;6742403;88;20055;-79
2023/10/16 13:38:39;;;;;;;;;;;15.00;99.90;;;;;;6751287;88;20058;-78
2023/10/16 13:48:45;;;;;;;;;;;14.80;99.90;;;;;;6741986;88;20064;-78
2023/10/16 13:58:46;;;;;;;;;;;14.80;99.90;;;;;;6744045;88;20444;-77
2023/10/16 14:08:48;;;;;;;;;;;14.10;99.90;;;;;;6740527;88;20091;-78
2023/10/16 14:18:49;;;;;;;;;;;14.30;99.90;;;;;;6742984;88;20073;-78
2023/10/16 14:28:59;;;;;;;;;;;14.20;99.90;;;;;;6737776;88;20074;-78
2023/10/16 14:39:03;;;;;;;;;;;14.10;99.90;;;;;;6737098;88;20109;-79
2023/10/16 14:49:08;;;;;;;;;;;13.80;99.90;;;;;;6738119;88;20080;-78
2023/10/16 14:59:09;;;;;;;;;;;13.40;99.90;;;;;;6741073;88;20053;-78
2023/10/16 15:09:15;;;;;;;;;;;13.20;99.90;;;;;;6737712;88;20181;-78
2023/10/16 15:19:16;;;;;;;;;;;13.30;99.90;;;;;;6737795;88;20180;-78
2023/10/16 15:29:16;;;;;;;;;;;13.10;99.90;;;;;;6738702;88;20048;-79
2023/10/16 15:39:21;;;;;;;;;;;13.00;99.90;;;;;;6741720;88;20066;-79
2023/10/16 15:49:21;;;;;;;;;;;12.60;99.90;;;;;;6739878;88;20349;-80
2023/10/16 15:59:21;;;;;;;;;;;12.40;99.90;;;;;;6741801;88;20188;-79
2023/10/16 16:19:26;;;;;;;;;;;11.70;99.90;;;;;;6766384;88;20066;-85
2023/10/16 16:29:27;;;;;;;;;;;11.50;99.90;;;;;;6759685;88;20084;-85
2023/10/16 16:39:34;;;;;;;;;;;11.20;99.90;;;;;;6763082;88;20054;-85
2023/10/16 16:49:35;;;;;;;;;;;10.90;99.90;;;;;;6748286;88;20122;-84
2023/10/16 16:59:36;;;;;;;;;;;10.70;99.90;;;;;;6751379;88;20050;-86
2023/10/16 17:09:37;;;;;;;;;;;10.40;99.90;;;;;;6751630;88;20143;-84
2023/10/16 17:19:43;;;;;;;;;;;10.10;99.90;;;;;;6745355;88;20065;-83
2023/10/16 17:29:44;;;;;;;;;;;9.80;99.90;;;;;;6746030;88;20063;-85
2023/10/16 17:39:48;;;;;;;;;;;9.70;99.90;;;;;;6749870;88;20058;-82
2023/10/16 17:49:49;;;;;;;;;;;9.40;99.90;;;;;;6748173;88;20046;-83
2023/10/16 17:59:50;;;;;;;;;;;9.20;99.90;;;;;;6745103;88;20178;-82
2023/10/16 18:09:52;;;;;;;;;;;8.90;99.90;;;;;;6743157;88;20133;-81
2023/10/16 18:19:53;;;;;;;;;;;8.70;99.90;;;;;;6737592;88;20085;-82
2023/10/16 18:29:54;;;;;;;;;;;8.50;99.90;;;;;;6737895;88;20675;-82
2023/10/16 18:39:54;;;;;;;;;;;8.40;99.90;;;;;;6734220;88;20073;-81
2023/10/16 18:49:55;;;;;;;;;;;8.40;99.90;;;;;;6738254;88;20053;-82
2023/10/16 18:59:56;;;;;;;;;;;8.30;99.90;;;;;;6730345;88;20094;-82
2023/10/16 19:09:57;;;;;;;;;;;8.30;99.90;;;;;;6730410;88;20070;-82
2023/10/16 19:19:58;;;;;;;;;;;8.10;99.90;;;;;;6729119;88;20057;-82
2023/10/16 19:29:58;;;;;;;;;;;8.00;99.90;;;;;;6728119;88;20063;-81
2023/10/16 19:39:59;;;;;;;;;;;7.90;99.90;;;;;;6733211;88;20078;-82
2023/10/16 19:50:01;;;;;;;;;;;8.00;99.90;;;;;;6729533;88;20067;-81
2023/10/16 20:00:04;;;;;;;;;;;7.90;99.90;;;;;;6725841;88;20751;-81
2023/10/16 20:10:06;;;;;;;;;;;7.70;99.90;;;;;;6731149;88;20526;-82
2023/10/16 20:20:17;;;;;;;;;;;7.60;99.90;;;;;;6732136;88;20095;-82
2023/10/16 20:30:17;;;;;;;;;;;7.50;99.90;;;;;;6730296;88;20110;-82
2023/10/16 20:40:19;;;;;;;;;;;7.50;99.90;;;;;;6734196;88;20072;-82
2023/10/16 20:50:23;;;;;;;;;;;7.40;99.90;;;;;;6732096;88;20076;-82
2023/10/16 21:00:29;;;;;;;;;;;7.30;99.90;;;;;;6749611;88;20083;-82
2023/10/16 21:10:31;;;;;;;;;;;7.30;99.90;;;;;;6735248;88;20071;-82
2023/10/16 21:20:32;;;;;;;;;;;7.00;99.90;;;;;;6737335;88;20053;-83
2023/10/16 21:30:33;;;;;;;;;;;6.90;99.90;;;;;;6734612;88;20062;-82
2023/10/16 21:40:36;;;;;;;;;;;6.90;99.90;;;;;;6731237;88;20129;-82
2023/10/16 21:50:36;;;;;;;;;;;6.80;99.90;;;;;;6731185;88;20076;-83
2023/10/16 22:00:41;;;;;;;;;;;6.80;99.90;;;;;;6733848;88;20059;-83
2023/10/16 22:20:45;;;;;;;;;;;7.00;99.90;;;;;;6747813;88;20104;-78
2023/10/16 22:30:45;;;;;;;;;;;6.90;99.90;;;;;;6727779;88;20078;-79
2023/10/16 22:40:54;;;;;;;;;;;6.70;99.90;;;;;;6726568;88;20062;-79
2023/10/16 22:50:55;;;;;;;;;;;6.70;99.90;;;;;;6731015;88;20121;-79
2023/10/16 23:00:57;;;;;;;;;;;6.60;99.90;;;;;;6726931;88;20089;-79
2023/10/16 23:11:04;;;;;;;;;;;6.70;99.90;;;;;;6749592;88;20083;-80
2023/10/16 23:21:07;;;;;;;;;;;6.50;99.90;;;;;;6733064;88;20146;-80
2023/10/16 23:31:08;;;;;;;;;;;6.30;99.90;;;;;;6727465;88;20053;-79
2023/10/16 23:41:18;;;;;;;;;;;6.00;99.90;;;;;;6729090;88;20648;-79
2023/10/16 23:51:22;;;;;;;;;;;6.10;99.90;;;;;;6742989;88;20068;-79
